createdAt,value
2017-08-29T00:01:01.782Z,17.80
2017-08-29T00:03:29.273Z,17.80
2017-08-29T00:05:56.774Z,17.60
2017-08-29T00:08:24.249Z,17.60
2017-08-29T00:10:52.493Z,17.30
2017-08-29T00:13:20.004Z,17.30
2017-08-29T00:15:47.481Z,17.30
2017-08-29T00:18:14.957Z,17.30
2017-08-29T00:20:42.465Z,17.30
2017-08-29T00:23:10.709Z,17.20
2017-08-29T00:25:38.185Z,17.20
2017-08-29T00:28:05.678Z,17.20
2017-08-29T00:30:33.157Z,17.20
2017-08-29T00:33:00.633Z,17.10
2017-08-29T00:35:28.161Z,17.00
2017-08-29T00:37:55.633Z,16.80
2017-08-29T00:40:23.109Z,16.90
2017-08-29T00:42:50.606Z,16.80
2017-08-29T00:45:18.085Z,16.90
2017-08-29T00:47:45.565Z,16.90
2017-08-29T00:50:13.081Z,16.90
2017-08-29T00:52:40.561Z,16.90
2017-08-29T00:55:08.041Z,16.90
2017-08-29T00:57:35.538Z,16.90
2017-08-29T01:00:03.014Z,16.90
2017-08-29T01:02:30.493Z,16.90
2017-08-29T01:04:57.984Z,16.90
2017-08-29T01:07:25.461Z,17.00
2017-08-29T01:09:52.936Z,17.00
2017-08-29T01:12:20.433Z,17.00
2017-08-29T01:14:47.905Z,16.80
2017-08-29T01:17:15.709Z,16.50
2017-08-29T01:19:43.210Z,16.40
2017-08-29T01:22:11.331Z,16.40
2017-08-29T01:24:39.395Z,16.40
2017-08-29T01:27:07.528Z,16.30
2017-08-29T01:29:35.001Z,16.30
2017-08-29T01:32:02.486Z,16.30
2017-08-29T01:34:30.746Z,16.30
2017-08-29T01:36:58.224Z,16.30
2017-08-29T01:39:27.000Z,16.30
2017-08-29T01:41:54.765Z,16.30
2017-08-29T01:44:22.580Z,16.30
2017-08-29T01:46:50.109Z,16.30
2017-08-29T01:49:18.111Z,16.30
2017-08-29T01:51:46.209Z,16.20
2017-08-29T01:54:13.685Z,16.20
2017-08-29T01:56:41.902Z,16.20
2017-08-29T01:59:09.733Z,16.20
2017-08-29T02:01:37.974Z,16.20
2017-08-29T02:04:05.477Z,16.20
2017-08-29T02:06:32.961Z,16.20
2017-08-29T02:09:00.445Z,16.10
2017-08-29T02:11:27.941Z,16.10
2017-08-29T02:13:56.234Z,16.00
2017-08-29T02:16:24.013Z,16.00
2017-08-29T02:18:51.663Z,16.00
2017-08-29T02:21:19.141Z,16.00
2017-08-29T02:23:46.617Z,16.00
2017-08-29T02:26:14.114Z,15.90
2017-08-29T02:28:41.602Z,15.90
2017-08-29T02:31:09.085Z,15.90
2017-08-29T02:33:36.868Z,15.90
2017-08-29T02:36:04.348Z,15.90
2017-08-29T02:38:31.833Z,15.80
2017-08-29T02:40:59.393Z,15.80
2017-08-29T02:43:26.873Z,15.80
2017-08-29T02:45:54.359Z,15.70
2017-08-29T02:48:21.858Z,15.70
2017-08-29T02:50:49.338Z,15.80
2017-08-29T02:53:16.817Z,15.80
2017-08-29T02:55:44.310Z,15.80
2017-08-29T02:58:12.550Z,15.70
2017-08-29T03:00:40.281Z,15.60
2017-08-29T03:03:07.781Z,15.60
2017-08-29T03:05:35.261Z,15.50
2017-08-29T03:08:03.505Z,15.50
2017-08-29T03:10:31.001Z,15.50
2017-08-29T03:12:58.485Z,15.50
2017-08-29T03:15:25.970Z,15.40
2017-08-29T03:17:53.486Z,15.40
2017-08-29T03:20:20.962Z,15.40
2017-08-29T03:22:48.442Z,15.40
2017-08-29T03:25:15.942Z,15.40
2017-08-29T03:27:43.421Z,15.40
2017-08-29T03:30:10.914Z,15.40
2017-08-29T03:32:38.649Z,15.30
2017-08-29T03:35:06.129Z,15.40
2017-08-29T03:37:33.611Z,15.40
2017-08-29T03:40:01.109Z,15.30
2017-08-29T03:42:29.092Z,15.40
2017-08-29T03:44:56.573Z,15.30
2017-08-29T03:47:24.078Z,15.30
2017-08-29T03:49:51.557Z,15.30
2017-08-29T03:52:19.037Z,15.20
2017-08-29T03:54:46.533Z,15.20
2017-08-29T03:57:14.014Z,15.00
2017-08-29T03:59:41.492Z,14.90
2017-08-29T04:02:10.121Z,14.70
2017-08-29T04:04:37.717Z,14.70
2017-08-29T04:07:05.497Z,14.70
2017-08-29T04:09:32.993Z,14.60
2017-08-29T04:12:00.469Z,14.60
2017-08-29T04:14:28.713Z,14.60
2017-08-29T04:16:56.554Z,14.60
2017-08-29T04:19:24.029Z,14.60
2017-08-29T04:21:51.506Z,14.70
2017-08-29T04:24:19.229Z,14.70
2017-08-29T04:26:47.098Z,14.80
2017-08-29T04:29:14.577Z,14.80
2017-08-29T04:31:42.073Z,14.90
2017-08-29T04:34:09.549Z,14.90
2017-08-29T04:36:37.028Z,14.90
2017-08-29T04:39:04.530Z,14.80
2017-08-29T04:41:32.005Z,14.90
2017-08-29T04:44:00.245Z,14.80
2017-08-29T04:46:28.033Z,14.80
2017-08-29T04:48:56.282Z,14.80
2017-08-29T04:51:23.762Z,14.80
2017-08-29T04:53:51.260Z,14.80
2017-08-29T04:56:18.742Z,14.80
2017-08-29T04:58:46.218Z,14.70
2017-08-29T05:01:13.713Z,14.70
2017-08-29T05:03:41.188Z,14.80
2017-08-29T05:06:08.665Z,14.80
2017-08-29T05:08:36.169Z,14.90
2017-08-29T05:11:04.434Z,14.90
2017-08-29T05:13:32.685Z,15.10
2017-08-29T05:16:00.185Z,15.00
2017-08-29T05:18:27.666Z,15.30
2017-08-29T05:20:55.144Z,15.50
2017-08-29T05:23:22.645Z,16.00
2017-08-29T05:25:50.355Z,16.30
2017-08-29T05:28:17.833Z,16.60
2017-08-29T05:30:45.346Z,16.90
2017-08-29T05:33:12.856Z,17.30
2017-08-29T05:35:47.110Z,17.70
2017-08-29T05:38:14.676Z,18.10
2017-08-29T05:40:42.152Z,18.50
2017-08-29T05:43:09.653Z,18.80
2017-08-29T05:45:37.133Z,19.20
2017-08-29T05:48:04.610Z,19.50
2017-08-29T05:50:32.109Z,19.50
2017-08-29T05:52:59.593Z,19.40
2017-08-29T05:55:27.073Z,19.50
2017-08-29T05:57:54.870Z,19.70
2017-08-29T06:00:22.401Z,20.10
2017-08-29T06:02:49.879Z,19.90
2017-08-29T06:05:17.397Z,20.30
2017-08-29T06:07:44.869Z,20.20
2017-08-29T06:10:12.346Z,20.10
2017-08-29T06:12:39.850Z,19.70
2017-08-29T06:15:07.328Z,19.90
2017-08-29T06:17:35.574Z,20.40
2017-08-29T06:20:03.073Z,20.40
2017-08-29T06:22:30.554Z,20.90
2017-08-29T06:24:58.033Z,21.10
2017-08-29T06:27:25.533Z,20.90
2017-08-29T06:29:53.026Z,20.90
2017-08-29T06:32:20.797Z,20.90
2017-08-29T06:34:48.293Z,20.90
2017-08-29T06:37:16.596Z,20.80
2017-08-29T06:39:44.841Z,20.90
2017-08-29T06:42:12.337Z,20.90
2017-08-29T06:44:39.813Z,21.10
2017-08-29T06:47:07.287Z,21.10
2017-08-29T06:49:34.781Z,21.30
2017-08-29T06:52:02.260Z,21.60
2017-08-29T06:54:30.501Z,22.40
2017-08-29T06:56:57.997Z,22.40
2017-08-29T06:59:25.477Z,22.90
2017-08-29T07:01:54.089Z,23.00
2017-08-29T07:04:21.589Z,23.00
2017-08-29T07:06:49.105Z,23.50
2017-08-29T07:09:17.349Z,24.20
2017-08-29T07:11:44.841Z,24.20
2017-08-29T07:14:12.323Z,24.40
2017-08-29T07:16:39.802Z,24.60
2017-08-29T07:19:07.305Z,24.60
2017-08-29T07:21:34.782Z,24.80
2017-08-29T07:24:02.265Z,25.10
2017-08-29T07:26:29.769Z,25.20
2017-08-29T07:28:57.257Z,25.40
2017-08-29T07:31:24.749Z,25.40
2017-08-29T07:33:52.258Z,25.10
2017-08-29T07:36:19.733Z,25.10
2017-08-29T07:38:47.217Z,25.60
2017-08-29T07:41:14.717Z,25.80
2017-08-29T07:43:42.193Z,26.30
2017-08-29T07:46:09.670Z,26.50
2017-08-29T07:48:37.937Z,26.60
2017-08-29T07:51:05.409Z,26.50
2017-08-29T07:53:33.649Z,25.70
2017-08-29T07:56:01.159Z,25.70
2017-08-29T07:58:28.647Z,26.10
2017-08-29T08:00:56.129Z,26.30
2017-08-29T08:03:23.629Z,26.50
2017-08-29T08:05:51.105Z,27.00
2017-08-29T08:08:18.591Z,27.50
2017-08-29T08:10:46.093Z,28.20
2017-08-29T08:13:13.573Z,27.60
2017-08-29T08:15:41.053Z,28.20
2017-08-29T08:18:08.569Z,28.90
2017-08-29T08:20:36.045Z,28.90
2017-08-29T08:23:03.526Z,28.70
2017-08-29T08:25:31.033Z,28.10
2017-08-29T08:27:58.509Z,28.30
2017-08-29T08:30:25.985Z,28.60
2017-08-29T08:32:53.485Z,29.00
2017-08-29T08:35:20.969Z,28.90
2017-08-29T08:37:48.454Z,30.00
2017-08-29T08:40:15.953Z,28.70
2017-08-29T08:42:43.438Z,28.70
2017-08-29T08:45:10.915Z,27.60
2017-08-29T08:47:38.409Z,27.40
2017-08-29T08:50:05.890Z,27.30
2017-08-29T08:55:07.382Z,28.00
2017-08-29T08:57:34.875Z,28.20
2017-08-29T09:00:02.364Z,28.20
2017-08-29T09:02:29.873Z,27.50
2017-08-29T09:04:57.349Z,27.50
2017-08-29T09:07:25.101Z,27.50
2017-08-29T09:09:52.866Z,28.10
2017-08-29T09:12:20.346Z,28.10
2017-08-29T09:14:48.596Z,28.20
2017-08-29T09:17:16.099Z,28.20
2017-08-29T09:19:43.577Z,27.90
2017-08-29T09:22:11.054Z,28.80
2017-08-29T09:24:38.562Z,29.00
2017-08-29T09:27:06.037Z,29.10
2017-08-29T09:29:33.516Z,29.40
2017-08-29T09:32:01.045Z,29.70
2017-08-29T09:34:28.521Z,29.80
2017-08-29T09:36:56.770Z,29.30
2017-08-29T09:39:24.493Z,29.20
2017-08-29T09:41:51.969Z,29.70
2017-08-29T09:44:19.446Z,30.40
2017-08-29T09:46:46.959Z,30.40
2017-08-29T09:49:14.461Z,30.60
2017-08-29T09:51:41.993Z,30.30
2017-08-29T09:54:09.496Z,30.30
2017-08-29T09:56:36.974Z,29.80
2017-08-29T09:59:04.449Z,30.20
2017-08-29T10:01:31.945Z,30.60
2017-08-29T10:03:59.425Z,30.50
2017-08-29T10:06:26.893Z,30.10
2017-08-29T10:08:54.384Z,30.20
2017-08-29T10:11:21.858Z,30.40
2017-08-29T10:13:49.334Z,30.90
2017-08-29T10:16:16.829Z,30.60
2017-08-29T10:18:44.298Z,30.10
2017-08-29T10:21:11.769Z,30.50
2017-08-29T10:23:39.261Z,30.50
2017-08-29T10:26:06.730Z,30.40
2017-08-29T10:28:34.203Z,30.60
2017-08-29T10:31:02.465Z,31.30
2017-08-29T10:33:29.936Z,31.30
2017-08-29T10:35:57.410Z,32.10
2017-08-29T10:38:24.913Z,31.70
2017-08-29T10:40:52.386Z,31.40
2017-08-29T10:43:19.858Z,31.30
2017-08-29T10:45:48.129Z,31.80
2017-08-29T10:48:15.600Z,31.90
2017-08-29T10:50:43.079Z,31.90
2017-08-29T10:53:10.570Z,31.10
2017-08-29T10:55:38.048Z,31.80
2017-08-29T10:58:05.517Z,32.50
2017-08-29T11:00:33.014Z,31.50
2017-08-29T11:03:00.485Z,31.50
2017-08-29T11:05:27.954Z,32.10
2017-08-29T11:07:55.446Z,32.60
2017-08-29T11:10:22.917Z,32.80
2017-08-29T11:12:50.434Z,32.20
2017-08-29T11:15:18.221Z,32.50
2017-08-29T11:17:45.693Z,32.80
2017-08-29T11:20:13.165Z,32.50
2017-08-29T11:22:40.658Z,33.00
2017-08-29T11:25:08.130Z,34.00
2017-08-29T11:27:35.607Z,34.60
2017-08-29T11:30:03.103Z,34.80
2017-08-29T11:32:30.578Z,33.20
2017-08-29T11:34:58.049Z,32.60
2017-08-29T11:37:25.549Z,32.00
2017-08-29T11:39:53.017Z,32.60
2017-08-29T11:42:20.489Z,32.70
2017-08-29T11:44:48.248Z,32.70
2017-08-29T11:47:15.725Z,32.80
2017-08-29T11:49:43.194Z,33.20
2017-08-29T11:52:10.690Z,33.20
2017-08-29T11:54:38.161Z,33.80
2017-08-29T11:57:05.629Z,34.20
2017-08-29T11:59:33.125Z,34.90
2017-08-29T12:02:00.597Z,35.50
2017-08-29T12:04:28.069Z,35.20
2017-08-29T12:06:56.593Z,35.80
2017-08-29T12:09:24.065Z,35.80
2017-08-29T12:11:51.538Z,34.70
2017-08-29T12:14:19.029Z,35.40
2017-08-29T12:16:46.502Z,34.60
2017-08-29T12:19:13.976Z,34.60
2017-08-29T12:21:41.473Z,35.30
2017-08-29T12:24:08.941Z,36.00
2017-08-29T12:26:36.417Z,35.60
2017-08-29T12:29:04.681Z,32.80
2017-08-29T12:31:32.153Z,32.70
2017-08-29T12:34:00.389Z,33.70
2017-08-29T12:36:27.885Z,33.70
2017-08-29T12:38:55.357Z,32.50
2017-08-29T12:41:22.825Z,33.40
2017-08-29T12:43:50.318Z,33.50
2017-08-29T12:46:17.793Z,33.30
2017-08-29T12:48:45.265Z,33.60
2017-08-29T12:51:12.757Z,33.50
2017-08-29T12:53:40.230Z,32.60
2017-08-29T12:56:07.701Z,32.80
2017-08-29T12:58:35.188Z,32.40
2017-08-29T13:01:03.425Z,33.70
2017-08-29T13:03:30.897Z,33.70
2017-08-29T13:05:58.389Z,33.40
2017-08-29T13:08:25.862Z,33.60
2017-08-29T13:10:53.333Z,34.00
2017-08-29T13:13:20.825Z,32.50
2017-08-29T13:15:48.293Z,32.30
2017-08-29T13:18:16.166Z,33.40
2017-08-29T13:20:43.658Z,33.70
2017-08-29T13:23:11.129Z,32.60
2017-08-29T13:25:38.601Z,31.40
2017-08-29T13:28:06.106Z,30.90
2017-08-29T13:30:33.579Z,30.60
2017-08-29T13:33:01.054Z,31.00
2017-08-29T13:35:28.817Z,30.90
2017-08-29T13:37:56.289Z,31.00
2017-08-29T13:40:23.761Z,31.00
2017-08-29T13:42:51.253Z,31.00
2017-08-29T13:45:18.729Z,31.10
2017-08-29T13:47:46.505Z,30.90
2017-08-29T13:50:14.001Z,30.80
2017-08-29T13:52:41.472Z,30.70
2017-08-29T13:55:08.950Z,30.30
2017-08-29T13:57:36.445Z,30.00
2017-08-29T14:00:03.922Z,30.30
2017-08-29T14:02:31.398Z,30.00
2017-08-29T14:04:58.889Z,30.20
2017-08-29T14:07:26.361Z,30.00
2017-08-29T14:09:53.832Z,30.10
2017-08-29T14:12:21.321Z,30.20
2017-08-29T14:14:48.793Z,30.30
2017-08-29T14:17:16.265Z,30.00
2017-08-29T14:19:43.761Z,29.90
2017-08-29T14:22:11.233Z,30.00
2017-08-29T14:24:38.700Z,29.80
2017-08-29T14:27:06.193Z,29.50
2017-08-29T14:29:33.666Z,29.70
2017-08-29T14:32:01.185Z,29.30
2017-08-29T14:34:28.689Z,29.50
2017-08-29T14:36:56.161Z,29.70
2017-08-29T14:39:23.633Z,29.70
2017-08-29T14:41:51.125Z,29.80
2017-08-29T14:44:18.598Z,29.60
2017-08-29T14:46:58.233Z,29.40
2017-08-29T14:49:25.701Z,29.50
2017-08-29T14:51:53.173Z,29.50
2017-08-29T14:54:20.665Z,29.50
2017-08-29T14:56:48.133Z,29.60
2017-08-29T14:59:15.601Z,29.50
2017-08-29T15:01:43.410Z,29.60
2017-08-29T15:04:10.881Z,29.60
2017-08-29T15:06:38.358Z,29.50
2017-08-29T15:09:05.849Z,29.40
2017-08-29T15:11:33.321Z,29.30
2017-08-29T15:14:00.792Z,29.50
2017-08-29T15:16:28.289Z,29.40
2017-08-29T15:18:55.762Z,29.20
2017-08-29T15:21:23.238Z,29.10
2017-08-29T15:23:51.035Z,29.30
2017-08-29T15:26:18.514Z,29.40
2017-08-29T15:28:45.985Z,29.50
2017-08-29T15:31:13.550Z,29.50
2017-08-29T15:33:41.802Z,29.40
2017-08-29T15:36:09.281Z,29.40
2017-08-29T15:38:36.773Z,29.40
2017-08-29T15:41:04.249Z,29.30
2017-08-29T15:43:31.728Z,29.30
2017-08-29T15:45:59.217Z,29.30
2017-08-29T15:48:26.691Z,29.30
2017-08-29T15:50:54.162Z,29.20
2017-08-29T15:53:21.653Z,29.20
2017-08-29T15:55:49.125Z,29.30
2017-08-29T15:58:17.037Z,29.30
2017-08-29T16:00:44.529Z,29.30
2017-08-29T16:03:12.005Z,29.30
2017-08-29T16:05:39.493Z,29.30
2017-08-29T16:08:06.988Z,29.30
2017-08-29T16:10:34.458Z,29.30
2017-08-29T16:13:01.936Z,29.20
2017-08-29T16:15:29.434Z,29.20
2017-08-29T16:17:57.225Z,29.20
2017-08-29T16:20:24.700Z,29.20
2017-08-29T16:22:52.197Z,29.10
2017-08-29T16:25:19.669Z,29.10
2017-08-29T16:27:47.910Z,29.10
2017-08-29T16:30:15.402Z,29.10
2017-08-29T16:32:42.877Z,29.20
2017-08-29T16:35:10.353Z,29.10
2017-08-29T16:37:37.846Z,29.10
2017-08-29T16:40:05.349Z,29.00
2017-08-29T16:42:32.833Z,29.00
2017-08-29T16:45:00.324Z,29.00
2017-08-29T16:47:27.793Z,29.00
2017-08-29T16:49:56.038Z,29.00
2017-08-29T16:52:23.529Z,28.90
2017-08-29T16:54:51.762Z,28.90
2017-08-29T16:57:19.242Z,28.90
2017-08-29T16:59:46.738Z,28.80
2017-08-29T17:02:14.208Z,28.80
2017-08-29T17:04:41.679Z,28.80
2017-08-29T17:07:09.173Z,28.70
2017-08-29T17:09:37.641Z,28.60
2017-08-29T17:12:05.114Z,28.60
2017-08-29T17:14:32.617Z,28.50
2017-08-29T17:17:00.089Z,28.50
2017-08-29T17:19:27.565Z,28.40
2017-08-29T17:21:55.345Z,28.30
2017-08-29T17:24:22.829Z,28.20
2017-08-29T17:26:50.307Z,28.10
2017-08-29T17:29:17.853Z,28.00
2017-08-29T17:31:45.337Z,27.90
2017-08-29T17:34:12.805Z,27.70
2017-08-29T17:36:40.305Z,27.40
2017-08-29T17:39:08.542Z,27.00
2017-08-29T17:41:36.029Z,27.00
2017-08-29T17:44:03.521Z,26.80
2017-08-29T17:46:30.993Z,26.70
2017-08-29T17:48:58.465Z,26.60
2017-08-29T17:51:25.970Z,26.50
2017-08-29T17:53:53.441Z,26.30
2017-08-29T17:56:20.909Z,26.20
2017-08-29T17:58:48.677Z,26.20
2017-08-29T18:01:16.147Z,26.00
2017-08-29T18:03:43.629Z,26.00
2017-08-29T18:06:11.121Z,25.80
2017-08-29T18:08:38.591Z,25.80
2017-08-29T18:11:06.061Z,25.60
2017-08-29T18:13:33.559Z,25.50
2017-08-29T18:16:01.034Z,25.40
2017-08-29T18:18:28.511Z,25.30
2017-08-29T18:20:56.770Z,25.10
2017-08-29T18:23:24.293Z,25.10
2017-08-29T18:25:52.404Z,25.00
2017-08-29T18:28:23.047Z,25.00
2017-08-29T18:30:56.410Z,25.00
2017-08-29T18:33:25.485Z,24.80
2017-08-29T18:35:54.035Z,24.70
2017-08-29T18:38:22.240Z,24.60
2017-08-29T18:40:51.552Z,24.50
2017-08-29T18:43:20.181Z,24.50
2017-08-29T18:45:49.492Z,24.40
2017-08-29T18:48:18.009Z,24.40
2017-08-29T18:50:47.812Z,24.30
2017-08-29T18:53:18.136Z,24.20
2017-08-29T18:55:48.882Z,24.20
2017-08-29T18:58:19.114Z,24.10
2017-08-29T19:00:48.975Z,23.80
2017-08-29T19:03:18.108Z,23.80
2017-08-29T19:05:50.062Z,23.70
2017-08-29T19:08:20.076Z,23.70
2017-08-29T19:10:53.129Z,23.70
2017-08-29T19:13:24.533Z,23.60
2017-08-29T19:15:56.982Z,23.60
2017-08-29T19:18:27.266Z,23.60
2017-08-29T19:20:57.608Z,23.60
2017-08-29T19:23:29.059Z,23.50
2017-08-29T19:25:59.545Z,23.50
2017-08-29T19:28:27.153Z,23.60
2017-08-29T19:30:54.914Z,23.60
2017-08-29T19:33:22.388Z,23.60
2017-08-29T19:35:49.865Z,23.50
2017-08-29T19:38:17.358Z,23.40
2017-08-29T19:40:44.835Z,23.30
2017-08-29T19:43:12.314Z,23.30
2017-08-29T19:45:39.861Z,23.30
2017-08-29T19:48:07.349Z,23.20
2017-08-29T19:50:35.961Z,23.10
2017-08-29T19:53:04.229Z,23.10
2017-08-29T19:55:31.707Z,23.10
2017-08-29T19:57:59.185Z,23.10
2017-08-29T20:00:26.682Z,23.20
2017-08-29T20:02:55.002Z,23.30
2017-08-29T20:05:22.473Z,23.40
2017-08-29T20:07:49.969Z,23.40
2017-08-29T20:10:17.457Z,23.40
2017-08-29T20:12:44.929Z,23.40
2017-08-29T20:15:12.421Z,23.40
2017-08-29T20:17:39.895Z,23.40
2017-08-29T20:20:07.367Z,23.30
2017-08-29T20:22:34.861Z,23.30
2017-08-29T20:25:02.330Z,23.40
2017-08-29T20:27:29.805Z,23.40
2017-08-29T20:29:57.294Z,23.40
2017-08-29T20:32:24.773Z,23.40
2017-08-29T20:34:53.010Z,23.30
2017-08-29T20:37:20.505Z,23.20
2017-08-29T20:39:48.741Z,23.00
2017-08-29T20:42:16.214Z,22.90
2017-08-29T20:44:43.710Z,22.90
2017-08-29T20:47:11.185Z,22.80
2017-08-29T20:49:38.670Z,22.40
2017-08-29T20:52:06.405Z,22.50
2017-08-29T20:54:33.881Z,22.20
2017-08-29T20:57:01.366Z,22.40
2017-08-29T20:59:28.865Z,22.60
2017-08-29T21:01:56.339Z,22.40
2017-08-29T21:04:23.815Z,22.50
2017-08-29T21:06:51.305Z,22.60
2017-08-29T21:09:19.009Z,22.70
2017-08-29T21:11:46.482Z,22.70
2017-08-29T21:14:13.974Z,22.80
2017-08-29T21:16:41.444Z,22.80
2017-08-29T21:19:09.962Z,23.00
2017-08-29T21:21:37.457Z,23.00
2017-08-29T21:24:04.925Z,23.20
2017-08-29T21:26:32.409Z,22.60
2017-08-29T21:28:59.921Z,22.50
2017-08-29T21:31:27.419Z,22.70
2017-08-29T21:33:54.881Z,22.70
2017-08-29T21:36:22.374Z,22.70
2017-08-29T21:38:49.845Z,22.60
2017-08-29T21:41:17.317Z,22.50
2017-08-29T21:43:44.809Z,22.60
2017-08-29T21:46:12.285Z,22.40
2017-08-29T21:48:40.058Z,22.40
2017-08-29T21:51:07.557Z,22.40
2017-08-29T21:53:35.053Z,22.50
2017-08-29T21:56:02.522Z,22.50
2017-08-29T21:58:30.018Z,22.70
2017-08-29T22:00:57.490Z,22.80
2017-08-29T22:03:24.976Z,22.90
2017-08-29T22:05:52.470Z,22.90
2017-08-29T22:08:19.940Z,22.40
2017-08-29T22:10:47.416Z,22.40
2017-08-29T22:13:15.122Z,22.60
2017-08-29T22:15:42.594Z,22.80
2017-08-29T22:18:10.073Z,22.90
2017-08-29T22:20:37.567Z,23.00
2017-08-29T22:23:05.054Z,22.90
2017-08-29T22:25:32.532Z,23.00
2017-08-29T22:28:00.030Z,23.10
2017-08-29T22:30:27.506Z,22.90
2017-08-29T22:32:54.982Z,23.00
2017-08-29T22:35:22.481Z,23.10
2017-08-29T22:37:49.955Z,23.20
2017-08-29T22:40:17.434Z,23.30
2017-08-29T22:42:45.281Z,23.30
2017-08-29T22:45:12.753Z,23.30
2017-08-29T22:47:40.237Z,23.40
2017-08-29T22:50:07.726Z,23.40
2017-08-29T22:52:35.197Z,23.40
2017-08-29T22:55:02.924Z,23.40
2017-08-29T22:57:30.427Z,23.20
2017-08-29T22:59:57.897Z,23.20
2017-08-29T23:02:25.372Z,23.10
2017-08-29T23:04:52.861Z,23.20
2017-08-29T23:07:20.553Z,23.30
2017-08-29T23:09:48.030Z,23.30
2017-08-29T23:12:16.293Z,23.30
2017-08-29T23:14:43.765Z,23.30
2017-08-29T23:17:11.237Z,23.20
2017-08-29T23:19:38.733Z,23.20
2017-08-29T23:22:06.478Z,23.20
2017-08-29T23:24:34.241Z,23.10
2017-08-29T23:27:01.733Z,23.10
2017-08-29T23:29:29.205Z,23.00
2017-08-29T23:31:56.681Z,23.10
2017-08-29T23:34:24.181Z,23.20
2017-08-29T23:36:51.657Z,23.00
2017-08-29T23:39:19.124Z,22.90
2017-08-29T23:41:46.625Z,23.00
2017-08-29T23:44:14.093Z,22.90
2017-08-29T23:46:41.567Z,22.70
2017-08-29T23:49:09.061Z,22.60
2017-08-29T23:51:36.530Z,22.60
2017-08-29T23:54:04.764Z,22.40
2017-08-29T23:56:32.264Z,22.40
2017-08-29T23:58:59.738Z,22.30
